createdAt,value
2024-01-11T00:00:13.773Z,643.00
2024-01-11T00:01:13.839Z,643.00
2024-01-11T00:02:13.937Z,642.00
2024-01-11T00:03:13.955Z,642.00
2024-01-11T00:04:14.032Z,642.00
2024-01-11T00:05:14.212Z,642.00
2024-01-11T00:06:14.241Z,641.00
2024-01-11T00:07:14.280Z,640.00
2024-01-11T00:08:14.290Z,639.00
2024-01-11T00:09:14.340Z,641.00
2024-01-11T00:10:14.482Z,640.00
2024-01-11T00:11:17.514Z,640.00
2024-01-11T00:12:14.514Z,643.00
2024-01-11T00:13:14.534Z,642.00
2024-01-11T00:14:14.588Z,642.00
2024-01-11T00:15:14.696Z,641.00
2024-01-11T00:16:14.608Z,639.00
2024-01-11T00:17:14.708Z,641.00
2024-01-11T00:18:14.736Z,639.00
2024-01-11T00:19:14.902Z,639.00
2024-01-11T00:20:14.862Z,640.00
2024-01-11T00:21:14.746Z,639.00
2024-01-11T00:22:14.775Z,636.00
2024-01-11T00:23:14.849Z,637.00
2024-01-11T00:24:14.840Z,637.00
2024-01-11T00:25:14.855Z,636.00
2024-01-11T00:26:15.061Z,637.00
2024-01-11T00:27:14.923Z,641.00
2024-01-11T00:28:14.961Z,639.00
2024-01-11T00:29:14.999Z,640.00
2024-01-11T00:30:15.029Z,640.00
2024-01-11T00:31:15.049Z,639.00
2024-01-11T00:32:15.092Z,640.00
2024-01-11T00:33:15.158Z,642.00
2024-01-11T00:34:15.262Z,644.00
2024-01-11T00:35:15.160Z,643.00
2024-01-11T00:36:15.169Z,641.00
2024-01-11T00:37:15.195Z,639.00
2024-01-11T00:38:15.269Z,639.00
2024-01-11T00:39:15.258Z,638.00
2024-01-11T00:40:15.288Z,636.00
2024-01-11T00:41:15.366Z,636.00
2024-01-11T00:42:15.340Z,635.00
2024-01-11T00:43:15.363Z,636.00
2024-01-11T00:44:15.457Z,636.00
2024-01-11T00:45:16.087Z,635.00
2024-01-11T00:46:15.442Z,632.00
2024-01-11T00:47:15.495Z,631.00
2024-01-11T00:48:15.591Z,631.00
2024-01-11T00:49:15.631Z,630.00
2024-01-11T00:50:15.639Z,631.00
2024-01-11T00:51:15.690Z,630.00
2024-01-11T00:52:15.750Z,633.00
2024-01-11T00:53:16.162Z,633.00
2024-01-11T00:54:15.899Z,635.00
2024-01-11T00:55:15.976Z,636.00
2024-01-11T00:56:16.065Z,635.00
2024-01-11T00:57:16.094Z,634.00
2024-01-11T00:58:16.166Z,635.00
2024-01-11T00:59:16.214Z,637.00
2024-01-11T01:00:16.267Z,639.00
2024-01-11T01:01:16.404Z,642.00
2024-01-11T01:02:16.468Z,642.00
2024-01-11T01:03:16.508Z,639.00
2024-01-11T01:04:16.652Z,642.00
2024-01-11T01:05:16.668Z,643.00
2024-01-11T01:06:16.794Z,638.00
2024-01-11T01:07:16.750Z,635.00
2024-01-11T01:08:16.876Z,636.00
2024-01-11T01:09:16.897Z,637.00
2024-01-11T01:10:16.968Z,636.00
2024-01-11T01:11:17.161Z,634.00
2024-01-11T01:12:17.100Z,638.00
2024-01-11T01:13:17.187Z,638.00
2024-01-11T01:14:17.311Z,638.00
2024-01-11T01:15:17.332Z,640.00
2024-01-11T01:16:17.384Z,641.00
2024-01-11T01:17:17.670Z,641.00
2024-01-11T01:18:17.754Z,640.00
2024-01-11T01:19:17.634Z,639.00
2024-01-11T01:20:17.701Z,640.00
2024-01-11T01:21:17.690Z,636.00
2024-01-11T01:22:17.754Z,634.00
2024-01-11T01:23:17.849Z,636.00
2024-01-11T01:24:17.882Z,636.00
2024-01-11T01:25:17.969Z,635.00
2024-01-11T01:26:18.071Z,634.00
2024-01-11T01:27:18.124Z,635.00
2024-01-11T01:28:18.153Z,633.00
2024-01-11T01:29:18.312Z,633.00
2024-01-11T01:30:18.317Z,630.00
2024-01-11T01:31:18.364Z,631.00
2024-01-11T01:32:18.558Z,631.00
2024-01-11T01:33:18.684Z,631.00
2024-01-11T01:34:18.626Z,630.00
2024-01-11T01:35:18.680Z,629.00
2024-01-11T01:36:18.680Z,632.00
2024-01-11T01:37:18.761Z,628.00
2024-01-11T01:38:18.872Z,627.00
2024-01-11T01:39:18.871Z,630.00
2024-01-11T01:40:18.928Z,631.00
2024-01-11T01:41:19.042Z,629.00
2024-01-11T01:42:19.062Z,629.00
2024-01-11T01:43:19.127Z,631.00
2024-01-11T01:44:19.299Z,631.00
2024-01-11T01:45:19.269Z,631.00
2024-01-11T01:46:19.333Z,632.00
2024-01-11T01:47:19.462Z,631.00
2024-01-11T01:48:19.592Z,631.00
2024-01-11T01:49:19.596Z,630.00
2024-01-11T01:50:19.634Z,629.00
2024-01-11T01:51:19.662Z,628.00
2024-01-11T01:52:19.729Z,627.00
2024-01-11T01:53:19.844Z,624.00
2024-01-11T01:54:19.862Z,624.00
2024-01-11T01:55:19.947Z,625.00
2024-01-11T01:56:20.008Z,626.00
2024-01-11T01:57:20.072Z,625.00
2024-01-11T01:58:20.152Z,624.00
2024-01-11T01:59:20.227Z,624.00
2024-01-11T02:00:20.277Z,623.00
2024-01-11T02:01:20.384Z,623.00
2024-01-11T02:02:20.466Z,623.00
2024-01-11T02:03:20.510Z,623.00
2024-01-11T02:04:20.547Z,621.00
2024-01-11T02:05:20.806Z,620.00
2024-01-11T02:06:20.746Z,618.00
2024-01-11T02:07:20.749Z,616.00
2024-01-11T02:08:20.832Z,616.00
2024-01-11T02:09:20.880Z,618.00
2024-01-11T02:10:20.951Z,622.00
2024-01-11T02:11:21.024Z,622.00
2024-01-11T02:12:21.077Z,622.00
2024-01-11T02:13:21.151Z,623.00
2024-01-11T02:14:21.235Z,624.00
2024-01-11T02:15:21.310Z,622.00
2024-01-11T02:16:21.370Z,622.00
2024-01-11T02:17:21.458Z,622.00
2024-01-11T02:18:21.542Z,621.00
2024-01-11T02:19:21.617Z,617.00
2024-01-11T02:20:21.656Z,617.00
2024-01-11T02:21:21.693Z,618.00
2024-01-11T02:22:21.786Z,618.00
2024-01-11T02:23:21.861Z,616.00
2024-01-11T02:24:21.879Z,614.00
2024-01-11T02:25:21.942Z,615.00
2024-01-11T02:26:22.028Z,615.00
2024-01-11T02:27:22.077Z,618.00
2024-01-11T02:28:22.150Z,620.00
2024-01-11T02:29:22.252Z,622.00
2024-01-11T02:30:22.310Z,624.00
2024-01-11T02:31:22.346Z,621.00
2024-01-11T02:32:22.552Z,617.00
2024-01-11T02:33:22.613Z,615.00
2024-01-11T02:34:22.589Z,616.00
2024-01-11T02:35:22.621Z,617.00
2024-01-11T02:36:22.666Z,617.00
2024-01-11T02:37:22.724Z,621.00
2024-01-11T02:38:22.847Z,625.00
2024-01-11T02:39:22.862Z,621.00
2024-01-11T02:40:22.933Z,620.00
2024-01-11T02:41:23.020Z,619.00
2024-01-11T02:42:23.086Z,618.00
2024-01-11T02:43:23.149Z,622.00
2024-01-11T02:44:23.303Z,623.00
2024-01-11T02:45:23.294Z,625.00
2024-01-11T02:46:23.383Z,625.00
2024-01-11T02:47:23.442Z,624.00
2024-01-11T02:48:23.540Z,626.00
2024-01-11T02:49:23.691Z,624.00
2024-01-11T02:50:23.672Z,622.00
2024-01-11T02:51:23.717Z,620.00
2024-01-11T02:52:23.750Z,619.00
2024-01-11T02:53:23.853Z,614.00
2024-01-11T02:54:23.881Z,615.00
2024-01-11T02:55:24.001Z,616.00
2024-01-11T02:56:24.048Z,616.00
2024-01-11T02:57:24.073Z,616.00
2024-01-11T02:58:24.170Z,615.00
2024-01-11T02:59:24.255Z,614.00
2024-01-11T03:00:24.271Z,611.00
2024-01-11T03:01:24.341Z,608.00
2024-01-11T03:02:24.482Z,609.00
2024-01-11T03:03:24.471Z,609.00
2024-01-11T03:04:24.532Z,609.00
2024-01-11T03:05:24.730Z,608.00
2024-01-11T03:06:24.705Z,611.00
2024-01-11T03:07:24.728Z,609.00
2024-01-11T03:08:24.856Z,610.00
2024-01-11T03:09:24.863Z,610.00
2024-01-11T03:10:24.933Z,608.00
2024-01-11T03:11:25.070Z,607.00
2024-01-11T03:12:25.053Z,606.00
2024-01-11T03:13:25.122Z,607.00
2024-01-11T03:14:25.185Z,608.00
2024-01-11T03:15:25.235Z,610.00
2024-01-11T03:16:25.301Z,608.00
2024-01-11T03:17:25.435Z,609.00
2024-01-11T03:18:25.471Z,613.00
2024-01-11T03:19:25.529Z,611.00
2024-01-11T03:20:25.609Z,610.00
2024-01-11T03:21:25.603Z,610.00
2024-01-11T03:22:25.677Z,609.00
2024-01-11T03:23:25.762Z,610.00
2024-01-11T03:24:25.787Z,609.00
2024-01-11T03:25:25.848Z,606.00
2024-01-11T03:26:25.990Z,606.00
2024-01-11T03:27:25.963Z,606.00
2024-01-11T03:28:26.031Z,603.00
2024-01-11T03:29:26.133Z,603.00
2024-01-11T03:30:26.181Z,603.00
2024-01-11T03:31:26.205Z,605.00
2024-01-11T03:32:26.361Z,603.00
2024-01-11T03:33:26.445Z,601.00
2024-01-11T03:34:26.474Z,601.00
2024-01-11T03:35:26.496Z,598.00
2024-01-11T03:36:26.536Z,600.00
2024-01-11T03:37:26.588Z,602.00
2024-01-11T03:38:26.667Z,601.00
2024-01-11T03:39:26.718Z,602.00
2024-01-11T03:40:26.786Z,606.00
2024-01-11T03:41:26.890Z,606.00
2024-01-11T03:42:26.915Z,604.00
2024-01-11T03:43:26.971Z,603.00
2024-01-11T03:44:27.056Z,604.00
2024-01-11T03:45:27.107Z,604.00
2024-01-11T03:46:27.188Z,605.00
2024-01-11T03:47:27.340Z,604.00
2024-01-11T03:48:27.362Z,604.00
2024-01-11T03:49:27.500Z,606.00
2024-01-11T03:50:27.459Z,608.00
2024-01-11T03:51:27.510Z,609.00
2024-01-11T03:52:27.635Z,613.00
2024-01-11T03:53:27.706Z,613.00
2024-01-11T03:54:27.736Z,614.00
2024-01-11T03:55:27.789Z,613.00
2024-01-11T03:56:27.890Z,613.00
2024-01-11T03:57:27.917Z,615.00
2024-01-11T03:58:27.988Z,613.00
2024-01-11T03:59:28.612Z,613.00
2024-01-11T04:00:28.117Z,611.00
2024-01-11T04:01:28.188Z,608.00
2024-01-11T04:02:28.273Z,609.00
2024-01-11T04:03:28.341Z,607.00
2024-01-11T04:04:28.353Z,609.00
2024-01-11T04:05:28.458Z,609.00
2024-01-11T04:06:28.578Z,608.00
2024-01-11T04:07:28.541Z,605.00
2024-01-11T04:08:28.630Z,607.00
2024-01-11T04:09:28.748Z,607.00
2024-01-11T04:10:28.758Z,609.00
2024-01-11T04:11:28.871Z,614.00
2024-01-11T04:12:28.876Z,618.00
2024-01-11T04:13:28.934Z,619.00
2024-01-11T04:14:29.033Z,622.00
2024-01-11T04:15:29.066Z,622.00
2024-01-11T04:16:29.135Z,617.00
2024-01-11T04:17:29.334Z,618.00
2024-01-11T04:18:29.291Z,621.00
2024-01-11T04:19:29.436Z,619.00
2024-01-11T04:20:29.446Z,618.00
2024-01-11T04:21:29.464Z,612.00
2024-01-11T04:22:29.531Z,614.00
2024-01-11T04:23:29.624Z,608.00
2024-01-11T04:24:29.638Z,610.00
2024-01-11T04:25:29.681Z,608.00
2024-01-11T04:26:29.781Z,608.00
2024-01-11T04:27:29.808Z,609.00
2024-01-11T04:28:29.895Z,608.00
2024-01-11T04:29:29.964Z,608.00
2024-01-11T04:30:30.030Z,606.00
2024-01-11T04:31:30.056Z,604.00
2024-01-11T04:32:30.166Z,607.00
2024-01-11T04:33:30.261Z,605.00
2024-01-11T04:34:30.281Z,607.00
2024-01-11T04:35:37.513Z,598.00
2024-01-11T04:36:37.439Z,603.00
2024-01-11T04:37:37.433Z,602.00
2024-01-11T04:38:37.473Z,602.00
2024-01-11T04:39:37.347Z,600.00
2024-01-11T04:40:37.311Z,598.00
2024-01-11T04:41:37.383Z,597.00
2024-01-11T04:42:37.293Z,599.00
2024-01-11T04:43:37.223Z,600.00
2024-01-11T04:44:37.257Z,600.00
2024-01-11T04:45:37.159Z,603.00
2024-01-11T04:46:37.138Z,601.00
2024-01-11T04:47:37.187Z,601.00
2024-01-11T04:48:37.121Z,601.00
2024-01-11T04:49:37.039Z,602.00
2024-01-11T04:50:37.093Z,602.00
2024-01-11T04:51:36.981Z,601.00
2024-01-11T04:52:36.954Z,600.00
2024-01-11T04:53:36.977Z,603.00
2024-01-11T04:54:36.906Z,603.00
2024-01-11T04:55:36.855Z,602.00
2024-01-11T04:56:36.894Z,601.00
2024-01-11T04:57:36.787Z,599.00
2024-01-11T04:58:36.767Z,598.00
2024-01-11T04:59:36.821Z,598.00
2024-01-11T05:00:36.738Z,600.00
2024-01-11T05:01:36.727Z,597.00
2024-01-11T05:02:36.955Z,600.00
2024-01-11T05:03:36.854Z,601.00
2024-01-11T05:04:36.807Z,603.00
2024-01-11T05:05:36.908Z,603.00
2024-01-11T05:06:36.928Z,605.00
2024-01-11T05:07:36.912Z,605.00
2024-01-11T05:08:37.050Z,605.00
2024-01-11T05:09:36.978Z,610.00
2024-01-11T05:10:36.997Z,611.00
2024-01-11T05:11:37.117Z,611.00
2024-01-11T05:12:37.061Z,612.00
2024-01-11T05:13:37.097Z,613.00
2024-01-11T05:14:37.193Z,612.00
2024-01-11T05:15:37.169Z,613.00
2024-01-11T05:16:37.213Z,612.00
2024-01-11T05:17:37.304Z,612.00
2024-01-11T05:18:37.373Z,613.00
2024-01-11T05:19:37.453Z,613.00
2024-01-11T05:20:37.364Z,615.00
2024-01-11T05:21:37.366Z,614.00
2024-01-11T05:22:37.403Z,614.00
2024-01-11T05:23:37.450Z,612.00
2024-01-11T05:24:37.477Z,613.00
2024-01-11T05:25:37.521Z,610.00
2024-01-11T05:26:37.615Z,610.00
2024-01-11T05:27:37.582Z,612.00
2024-01-11T05:28:37.622Z,610.00
2024-01-11T05:29:37.692Z,608.00
2024-01-11T05:30:37.893Z,610.00
2024-01-11T05:31:37.857Z,609.00
2024-01-11T05:32:37.873Z,611.00
2024-01-11T05:33:37.942Z,610.00
2024-01-11T05:34:38.141Z,610.00
2024-01-11T05:35:38.102Z,610.00
2024-01-11T05:36:37.917Z,608.00
2024-01-11T05:37:37.954Z,607.00
2024-01-11T05:38:38.008Z,607.00
2024-01-11T05:39:38.009Z,608.00
2024-01-11T05:40:38.063Z,609.00
2024-01-11T05:41:38.206Z,612.00
2024-01-11T05:42:38.174Z,611.00
2024-01-11T05:43:38.168Z,609.00
2024-01-11T05:44:38.306Z,608.00
2024-01-11T05:45:47.340Z,609.00
2024-01-11T05:46:39.333Z,606.00
2024-01-11T05:47:38.378Z,605.00
2024-01-11T05:48:38.306Z,602.00
2024-01-11T05:49:38.133Z,602.00
2024-01-11T05:50:38.179Z,603.00
2024-01-11T05:51:38.086Z,603.00
2024-01-11T05:52:38.063Z,603.00
2024-01-11T05:53:38.105Z,602.00
2024-01-11T05:54:38.062Z,602.00
2024-01-11T05:55:38.121Z,601.00
2024-01-11T05:56:38.196Z,601.00
2024-01-11T05:57:38.194Z,602.00
2024-01-11T05:58:38.229Z,601.00
2024-01-11T05:59:38.335Z,600.00
2024-01-11T06:00:38.360Z,603.00
2024-01-11T06:01:38.374Z,603.00
2024-01-11T06:02:38.493Z,604.00
2024-01-11T06:03:38.663Z,605.00
2024-01-11T06:04:38.487Z,606.00
2024-01-11T06:05:38.581Z,606.00
2024-01-11T06:06:38.632Z,607.00
2024-01-11T06:07:38.625Z,606.00
2024-01-11T06:08:38.828Z,605.00
2024-01-11T06:09:38.709Z,604.00
2024-01-11T06:10:38.757Z,604.00
2024-01-11T06:11:38.856Z,610.00
2024-01-11T06:12:38.817Z,617.00
2024-01-11T06:13:38.858Z,674.00
2024-01-11T06:14:38.991Z,673.00
2024-01-11T06:15:38.929Z,667.00
2024-01-11T06:16:38.981Z,665.00
2024-01-11T06:17:39.069Z,664.00
2024-01-11T06:18:40.116Z,657.00
2024-01-11T06:19:38.965Z,647.00
2024-01-11T06:20:39.021Z,654.00
2024-01-11T06:21:38.908Z,687.00
2024-01-11T06:22:38.911Z,744.00
2024-01-11T06:23:39.005Z,745.00
2024-01-11T06:24:38.820Z,749.00
2024-01-11T06:25:38.786Z,785.00
2024-01-11T06:26:38.872Z,801.00
2024-01-11T06:27:38.820Z,828.00
2024-01-11T06:28:38.829Z,839.00
2024-01-11T06:29:38.908Z,846.00
2024-01-11T06:30:38.891Z,850.00
2024-01-11T06:31:38.891Z,866.00
2024-01-11T06:32:38.972Z,908.00
2024-01-11T06:33:39.001Z,905.00
2024-01-11T06:34:38.959Z,816.00
2024-01-11T06:35:38.905Z,910.00
2024-01-11T06:36:38.892Z,891.00
2024-01-11T06:37:38.920Z,888.00
2024-01-11T06:38:39.003Z,880.00
2024-01-11T06:39:38.912Z,876.00
2024-01-11T06:40:38.949Z,873.00
2024-01-11T06:41:39.068Z,844.00
2024-01-11T06:42:38.969Z,846.00
2024-01-11T06:43:38.988Z,857.00
2024-01-11T06:44:39.067Z,862.00
2024-01-11T06:45:39.027Z,863.00
2024-01-11T06:46:39.051Z,861.00
2024-01-11T06:47:39.199Z,863.00
2024-01-11T06:48:39.305Z,863.00
2024-01-11T06:49:39.178Z,855.00
2024-01-11T06:50:39.186Z,856.00
2024-01-11T06:51:39.228Z,853.00
2024-01-11T06:52:39.223Z,850.00
2024-01-11T06:53:39.347Z,844.00
2024-01-11T06:54:39.329Z,844.00
2024-01-11T06:55:39.343Z,843.00
2024-01-11T06:56:39.418Z,841.00
2024-01-11T06:57:39.423Z,841.00
2024-01-11T06:58:39.446Z,837.00
2024-01-11T06:59:39.514Z,886.00
2024-01-11T07:00:39.542Z,891.00
2024-01-11T07:01:39.564Z,891.00
2024-01-11T07:02:39.663Z,886.00
2024-01-11T07:03:39.705Z,886.00
2024-01-11T07:04:39.683Z,886.00
2024-01-11T07:05:39.814Z,886.00
2024-01-11T07:06:39.907Z,883.00
2024-01-11T07:07:39.801Z,884.00
2024-01-11T07:08:39.863Z,883.00
2024-01-11T07:09:39.871Z,882.00
2024-01-11T07:10:39.920Z,881.00
2024-01-11T07:11:40.125Z,880.00
2024-01-11T07:12:39.993Z,879.00
2024-01-11T07:13:40.360Z,874.00
2024-01-11T07:14:40.123Z,871.00
2024-01-11T07:15:40.228Z,872.00
2024-01-11T07:16:40.174Z,868.00
2024-01-11T07:17:41.182Z,864.00
2024-01-11T07:18:42.234Z,862.00
2024-01-11T07:19:40.362Z,862.00
2024-01-11T07:20:40.509Z,865.00
2024-01-11T07:21:40.384Z,1210.00
2024-01-11T07:22:42.405Z,1131.00
2024-01-11T07:23:40.409Z,1138.00
2024-01-11T07:24:40.389Z,1148.00
2024-01-11T07:25:40.363Z,1148.00
2024-01-11T07:26:40.322Z,1146.00
2024-01-11T07:27:41.055Z,1142.00
2024-01-11T07:28:40.194Z,1136.00
2024-01-11T07:29:40.213Z,1137.00
2024-01-11T07:30:41.225Z,1132.00
2024-01-11T07:31:41.563Z,1131.00
2024-01-11T07:32:40.394Z,1135.00
2024-01-11T07:33:40.554Z,1133.00
2024-01-11T07:34:41.161Z,1123.00
2024-01-11T07:35:41.119Z,1106.00
2024-01-11T07:36:41.169Z,1101.00
2024-01-11T07:37:41.065Z,1098.00
2024-01-11T07:38:40.518Z,1093.00
2024-01-11T07:39:40.588Z,1087.00
2024-01-11T07:40:43.471Z,1087.00
2024-01-11T07:41:40.682Z,1080.00
2024-01-11T07:42:40.485Z,1078.00
2024-01-11T07:43:48.992Z,1072.00
2024-01-11T07:44:41.461Z,1064.00
2024-01-11T07:45:41.330Z,1058.00
2024-01-11T07:46:46.838Z,1049.00
2024-01-11T07:47:41.353Z,1040.00
2024-01-11T07:48:40.347Z,1031.00
2024-01-11T07:49:40.275Z,1026.00
2024-01-11T07:50:40.227Z,1018.00
2024-01-11T07:51:40.148Z,1012.00
2024-01-11T07:52:40.201Z,999.00
2024-01-11T07:53:40.151Z,926.00
2024-01-11T07:54:40.080Z,932.00
2024-01-11T07:55:40.142Z,931.00
2024-01-11T07:56:40.222Z,929.00
2024-01-11T07:57:40.057Z,940.00
2024-01-11T07:58:40.028Z,941.00
2024-01-11T07:59:40.055Z,942.00
2024-01-11T08:00:40.596Z,939.00
2024-01-11T08:01:39.950Z,930.00
2024-01-11T08:02:40.009Z,913.00
2024-01-11T08:03:39.960Z,915.00
2024-01-11T08:04:40.003Z,912.00
2024-01-11T08:05:40.077Z,913.00
2024-01-11T08:06:40.125Z,911.00
2024-01-11T08:07:40.097Z,908.00
2024-01-11T08:08:40.295Z,908.00
2024-01-11T08:09:41.140Z,909.00
2024-01-11T08:10:40.075Z,909.00
2024-01-11T08:11:42.952Z,907.00
2024-01-11T08:12:40.002Z,883.00
2024-01-11T08:13:39.979Z,871.00
2024-01-11T08:14:40.069Z,869.00
2024-01-11T08:15:39.922Z,863.00
2024-01-11T08:16:40.127Z,870.00
2024-01-11T08:17:41.076Z,866.00
2024-01-11T08:18:39.889Z,1041.00
2024-01-11T08:19:39.901Z,1051.00
2024-01-11T08:20:39.985Z,1058.00
2024-01-11T08:21:39.978Z,1057.00
2024-01-11T08:22:41.018Z,1057.00
2024-01-11T08:23:39.943Z,1030.00
2024-01-11T08:24:39.900Z,1025.00
2024-01-11T08:25:39.842Z,1027.00
2024-01-11T08:26:39.825Z,1020.00
2024-01-11T08:27:39.765Z,1008.00
2024-01-11T08:28:40.642Z,999.00
2024-01-11T08:29:40.623Z,997.00
2024-01-11T08:30:39.721Z,1010.00
2024-01-11T08:31:40.584Z,1019.00
2024-01-11T08:32:39.743Z,1017.00
2024-01-11T08:33:40.147Z,1071.00
2024-01-11T08:34:39.928Z,1062.00
2024-01-11T08:35:39.830Z,1061.00
2024-01-11T08:36:39.799Z,1090.00
2024-01-11T08:37:39.820Z,1108.00
2024-01-11T08:38:39.898Z,1149.00
2024-01-11T08:39:41.281Z,1140.00
2024-01-11T08:40:39.992Z,1134.00
2024-01-11T08:41:39.999Z,1134.00
2024-01-11T08:42:39.998Z,1131.00
2024-01-11T08:43:40.024Z,1124.00
2024-01-11T08:44:40.094Z,1104.00
2024-01-11T08:45:40.064Z,1102.00
2024-01-11T08:46:40.645Z,1098.00
2024-01-11T08:47:40.488Z,1105.00
2024-01-11T08:48:41.163Z,1046.00
2024-01-11T08:49:40.173Z,1024.00
2024-01-11T08:50:40.212Z,1025.00
2024-01-11T08:51:40.218Z,1028.00
2024-01-11T08:52:40.267Z,1086.00
2024-01-11T08:53:41.234Z,1090.00
2024-01-11T08:54:40.295Z,1090.00
2024-01-11T08:55:40.334Z,1093.00
2024-01-11T08:56:40.492Z,1085.00
2024-01-11T08:57:40.378Z,1075.00
2024-01-11T08:58:40.406Z,1097.00
2024-01-11T08:59:40.585Z,1088.00
2024-01-11T09:00:40.564Z,1059.00
2024-01-11T09:01:41.010Z,1043.00
2024-01-11T09:02:40.553Z,1033.00
2024-01-11T09:03:40.592Z,1033.00
2024-01-11T09:04:40.469Z,1028.00
2024-01-11T09:05:40.535Z,1029.00
2024-01-11T09:06:40.399Z,1024.00
2024-01-11T09:07:40.342Z,1024.00
2024-01-11T09:08:40.322Z,1032.00
2024-01-11T09:09:44.483Z,1035.00
2024-01-11T09:10:41.223Z,1039.00
2024-01-11T09:11:40.319Z,1045.00
2024-01-11T09:12:40.169Z,1045.00
2024-01-11T09:13:40.138Z,1097.00
2024-01-11T09:14:40.202Z,1163.00
2024-01-11T09:15:41.684Z,1269.00
2024-01-11T09:16:40.054Z,1511.00
2024-01-11T09:17:40.176Z,1578.00
2024-01-11T09:18:41.187Z,1588.00
2024-01-11T09:19:40.126Z,1611.00
2024-01-11T09:20:39.931Z,1738.00
2024-01-11T09:21:39.861Z,1804.00
2024-01-11T09:22:39.830Z,1736.00
2024-01-11T09:23:39.878Z,1866.00
2024-01-11T09:24:40.681Z,1836.00
2024-01-11T09:25:39.710Z,1891.00
2024-01-11T09:26:39.763Z,1895.00
2024-01-11T09:27:39.621Z,1891.00
2024-01-11T09:28:40.127Z,1920.00
2024-01-11T09:29:39.596Z,1951.00
2024-01-11T09:30:39.537Z,1964.00
2024-01-11T09:31:39.471Z,1714.00
2024-01-11T09:32:39.623Z,1695.00
2024-01-11T09:33:39.524Z,1727.00
2024-01-11T09:34:40.494Z,1791.00
2024-01-11T09:35:39.316Z,1616.00
2024-01-11T09:36:39.305Z,1617.00
2024-01-11T09:37:39.337Z,1623.00
2024-01-11T09:38:39.340Z,1631.00
2024-01-11T09:39:39.224Z,1613.00
2024-01-11T09:40:39.224Z,1520.00
2024-01-11T09:41:39.334Z,1458.00
2024-01-11T09:42:44.268Z,1411.00
2024-01-11T09:43:39.135Z,1235.00
2024-01-11T09:44:39.127Z,1199.00
2024-01-11T09:45:39.080Z,1433.00
2024-01-11T09:46:39.039Z,1520.00
2024-01-11T09:47:39.099Z,1718.00
2024-01-11T09:48:39.758Z,1664.00
2024-01-11T09:49:43.645Z,1645.00
2024-01-11T09:50:38.956Z,1325.00
2024-01-11T09:51:38.866Z,1447.00
2024-01-11T09:52:38.912Z,1296.00
2024-01-11T09:53:38.882Z,1344.00
2024-01-11T09:54:38.769Z,1184.00
2024-01-11T09:55:38.755Z,1178.00
2024-01-11T09:56:38.774Z,1158.00
2024-01-11T09:57:38.697Z,1292.00
2024-01-11T09:58:38.633Z,1283.00
2024-01-11T09:59:38.708Z,1278.00
2024-01-11T10:00:38.577Z,1338.00
2024-01-11T10:01:38.533Z,1335.00
2024-01-11T10:02:38.528Z,1331.00
2024-01-11T10:03:38.506Z,1408.00
2024-01-11T10:04:38.662Z,1393.00
2024-01-11T10:05:39.529Z,1381.00
2024-01-11T10:06:39.148Z,1292.00
2024-01-11T10:07:38.324Z,1291.00
2024-01-11T10:08:38.449Z,1305.00
2024-01-11T10:09:38.267Z,1287.00
2024-01-11T10:10:38.590Z,1269.00
2024-01-11T10:11:38.229Z,1091.00
2024-01-11T10:12:39.272Z,1089.00
2024-01-11T10:13:38.207Z,1317.00
2024-01-11T10:14:38.196Z,1393.00
2024-01-11T10:15:38.092Z,1384.00
2024-01-11T10:16:38.646Z,1362.00
2024-01-11T10:17:39.226Z,1288.00
2024-01-11T10:18:38.351Z,1277.00
2024-01-11T10:19:38.296Z,1244.00
2024-01-11T10:20:38.445Z,1253.00
2024-01-11T10:21:38.339Z,1260.00
2024-01-11T10:22:38.270Z,1260.00
2024-01-11T10:23:39.121Z,1262.00
2024-01-11T10:24:38.285Z,1267.00
2024-01-11T10:25:38.312Z,1276.00
2024-01-11T10:26:38.413Z,1293.00
2024-01-11T10:27:38.342Z,1292.00
2024-01-11T10:28:49.440Z,1293.00
2024-01-11T10:29:41.370Z,1287.00
2024-01-11T10:30:40.612Z,1272.00
2024-01-11T10:31:38.453Z,1191.00
2024-01-11T10:32:42.556Z,1186.00
2024-01-11T10:33:38.496Z,1180.00
2024-01-11T10:34:38.728Z,1176.00
2024-01-11T10:35:38.384Z,1165.00
2024-01-11T10:36:38.102Z,1155.00
2024-01-11T10:37:38.107Z,1190.00
2024-01-11T10:38:39.689Z,1194.00
2024-01-11T10:39:38.053Z,1209.00
2024-01-11T10:40:37.965Z,1209.00
2024-01-11T10:41:37.984Z,1201.00
2024-01-11T10:42:37.885Z,1206.00
2024-01-11T10:43:37.862Z,1205.00
2024-01-11T10:44:39.080Z,1211.00
2024-01-11T10:45:37.805Z,1211.00
2024-01-11T10:46:38.632Z,1197.00
2024-01-11T10:47:37.833Z,1138.00
2024-01-11T10:48:37.836Z,1137.00
2024-01-11T10:49:37.849Z,1137.00
2024-01-11T10:50:37.885Z,1131.00
2024-01-11T10:51:37.880Z,1165.00
2024-01-11T10:52:37.901Z,1163.00
2024-01-11T10:53:38.694Z,1159.00
2024-01-11T10:54:37.984Z,1163.00
2024-01-11T10:55:38.048Z,1175.00
2024-01-11T10:56:38.085Z,1176.00
2024-01-11T10:57:38.056Z,1179.00
2024-01-11T10:58:38.142Z,1183.00
2024-01-11T10:59:38.131Z,1184.00
2024-01-11T11:00:38.168Z,1185.00
2024-01-11T11:01:38.200Z,1187.00
2024-01-11T11:02:38.212Z,1187.00
2024-01-11T11:03:38.258Z,1177.00
2024-01-11T11:04:38.232Z,1166.00
2024-01-11T11:05:38.360Z,1164.00
2024-01-11T11:06:39.214Z,1177.00
2024-01-11T11:07:38.295Z,1210.00
2024-01-11T11:08:38.497Z,1245.00
2024-01-11T11:09:38.387Z,1317.00
2024-01-11T11:10:38.425Z,1327.00
2024-01-11T11:11:38.508Z,1334.00
2024-01-11T11:12:38.459Z,1342.00
2024-01-11T11:13:38.489Z,1344.00
2024-01-11T11:14:38.623Z,1292.00
2024-01-11T11:15:38.512Z,1281.00
2024-01-11T11:16:38.537Z,1279.00
2024-01-11T11:17:38.499Z,1222.00
2024-01-11T11:18:38.498Z,1226.00
2024-01-11T11:19:38.464Z,1235.00
2024-01-11T11:20:38.366Z,1211.00
2024-01-11T11:21:39.053Z,1215.00
2024-01-11T11:22:38.275Z,1200.00
2024-01-11T11:23:38.318Z,1215.00
2024-01-11T11:24:38.217Z,1216.00
2024-01-11T11:25:38.176Z,1210.00
2024-01-11T11:26:38.218Z,1195.00
2024-01-11T11:27:38.163Z,1190.00
2024-01-11T11:28:38.184Z,1191.00
2024-01-11T11:29:38.296Z,1195.00
2024-01-11T11:30:38.217Z,1198.00
2024-01-11T11:31:38.269Z,1199.00
2024-01-11T11:32:39.355Z,1197.00
2024-01-11T11:33:38.352Z,1190.00
2024-01-11T11:34:38.269Z,1201.00
2024-01-11T11:35:38.451Z,1262.00
2024-01-11T11:36:38.289Z,1284.00
2024-01-11T11:37:38.322Z,1291.00
2024-01-11T11:38:38.371Z,1285.00
2024-01-11T11:39:38.378Z,1281.00
2024-01-11T11:40:38.438Z,1309.00
2024-01-11T11:41:38.381Z,1291.00
2024-01-11T11:42:38.387Z,1269.00
2024-01-11T11:43:38.409Z,1262.00
2024-01-11T11:44:38.527Z,1286.00
2024-01-11T11:45:38.456Z,1253.00
2024-01-11T11:46:38.425Z,1252.00
2024-01-11T11:47:38.686Z,1288.00
2024-01-11T11:48:38.606Z,1352.00
2024-01-11T11:49:38.650Z,1252.00
2024-01-11T11:50:38.568Z,1239.00
2024-01-11T11:51:38.538Z,1241.00
2024-01-11T11:52:38.539Z,1245.00
2024-01-11T11:53:38.591Z,1260.00
2024-01-11T11:54:38.574Z,1267.00
2024-01-11T11:55:38.592Z,1258.00
2024-01-11T11:56:38.686Z,1263.00
2024-01-11T11:57:38.671Z,1272.00
2024-01-11T11:58:38.672Z,1338.00
2024-01-11T11:59:38.697Z,1336.00
2024-01-11T12:00:38.700Z,1347.00
2024-01-11T12:01:38.698Z,1256.00
2024-01-11T12:02:38.765Z,1294.00
2024-01-11T12:03:38.779Z,1301.00
2024-01-11T12:04:38.768Z,1355.00
2024-01-11T12:05:38.903Z,1325.00
2024-01-11T12:06:38.880Z,1304.00
2024-01-11T12:07:38.759Z,1305.00
2024-01-11T12:08:38.845Z,1313.00
2024-01-11T12:09:38.786Z,1387.00
2024-01-11T12:10:38.794Z,1391.00
2024-01-11T12:11:38.851Z,1378.00
2024-01-11T12:12:38.845Z,1305.00
2024-01-11T12:13:39.995Z,1355.00
2024-01-11T12:14:39.596Z,1293.00
2024-01-11T12:15:38.875Z,1402.00
2024-01-11T12:16:38.927Z,1320.00
2024-01-11T12:17:38.979Z,1333.00
2024-01-11T12:18:38.964Z,1321.00
2024-01-11T12:19:38.900Z,1316.00
2024-01-11T12:20:38.850Z,1264.00